Bookmark and Share
Track history (hours):
 

MV Nord Discovery

Last reported at 2014-Apr-18 17:24 UTC. Time now 2014-Apr-18 18:11 UTC.
Position N 43°24' E 003°43'.

Length 183 m; draft 10.1 m.

Type: Cargo ship. MMSI: 354855000.

NotesDate/timePositionNaut miles runAvg speedWind from/ knotsBaromVisibWave heightAir tempDewpointWater temp
2014-Apr-18 17:24N 43°24' E 003°43'0 0.0
2014-Apr-18 15:27N 43°24' E 003°43'0 0.0
2014-Apr-18 09:27N 43°24' E 003°43'0 0.0
2014-Apr-18 07:27N 43°24' E 003°43'0 0.0
2014-Apr-18 05:30N 43°24' E 003°43'0 0.0
2014-Apr-18 02:30N 43°24' E 003°43'0 0.0
2014-Apr-18 00:17N 43°24' E 003°43'0 0.0
2014-Apr-17 23:27N 43°24' E 003°43'0 0.0
2014-Apr-17 19:11N 43°24' E 003°43'0 0.0
2014-Apr-17 17:17N 43°24' E 003°43'0 0.0
2014-Apr-17 15:24N 43°24' E 003°43'0 0.0
2014-Apr-17 12:16N 43°24' E 003°43'1 1.5
2014-Apr-17 11:33N 43°24' E 003°44'1 1.4
2014-Apr-17 10:29N 43°23' E 003°46'3 2.8
2014-Apr-17 09:32N 43°21' E 003°43'3 0.7
2014-Apr-17 05:15N 43°24' E 003°42'3 0.4
2014-Apr-16 21:34N 43°21' E 003°42'0 0.0
2014-Apr-16 20:04N 43°21' E 003°42'0 0.0
2014-Apr-16 17:33N 43°21' E 003°42'0 0.0
2014-Apr-16 16:25N 43°21' E 003°42'0 0.0
2014-Apr-16 15:15N 43°21' E 003°42'0 0.0
2014-Apr-16 12:11N 43°21' E 003°43'0 0.0
2014-Apr-16 11:19N 43°21' E 003°43'0 0.0
2014-Apr-16 10:13N 43°21' E 003°43'0 0.0
2014-Apr-16 01:21N 43°21' E 003°42'0 0.0
2014-Apr-16 00:22N 43°21' E 003°42'0 0.0
2014-Apr-15 20:30N 43°21' E 003°42'0 0.0
2014-Apr-15 19:30N 43°21' E 003°42'0 0.1
2014-Apr-15 17:18N 43°21' E 003°43'0 0.0
2014-Apr-15 16:24N 43°21' E 003°43'0 0.0
2014-Apr-15 11:30N 43°21' E 003°43'0 0.0
2014-Apr-14 23:31N 43°21' E 003°43'0 0.0
2014-Apr-14 10:31N 43°21' E 003°43'7 6.8
2014-Apr-14 09:33N 43°16' E 003°49'8 7.4
2014-Apr-14 08:32N 43°09' E 003°50'2311.8
2014-Apr-14 06:33N 42°46' E 003°44'1212.1
2014-Apr-14 05:32N 42°34' E 003°41'8812.6
2014-Apr-13 22:33N 41°18' E 002°40'1111.3
2014-Apr-13 21:33N 41°11' E 002°29'1111.4
2014-Apr-13 20:34N 41°09' E 002°15'1211.7
2014-Apr-13 19:33N 41°06' E 001°59'1212.3
2014-Apr-13 18:33N 41°04' E 001°43'1212.4
2014-Apr-13 17:33N 41°02' E 001°27'11 9.7
2014-Apr-13 16:23N 41°05' E 001°12'2 0.1
2014-Apr-13 00:32N 41°06' E 001°14'6 3.0
2014-Apr-12 22:28N 40°60' E 001°12'5 4.9
2014-Apr-12 21:34N 40°55' E 001°11'1111.0
2014-Apr-12 20:33N 40°45' E 001°08'1312.6
2014-Apr-12 19:33N 40°32' E 001°04'1211.3
2014-Apr-12 18:32N 40°21' E 001°02'1111.6
2014-Apr-12 17:34N 40°10' E 000°59'1211.5
2014-Apr-12 16:34N 39°59' E 000°56'1211.1
2014-Apr-12 15:27N 39°46' E 000°52'13610.4
2014-Apr-12 02:27N 37°44' W 000°22'1011.3
2014-Apr-12 01:33N 37°35' W 000°29'23911.2
2014-Apr-11 04:11N 36°00' W 005°03'813.0
2014-Apr-11 03:34N 35°59' W 005°13'1414.2
2014-Apr-11 02:33N 35°57' W 005°30'1713.1
2014-Apr-11 01:17N 35°55' W 005°50'30 9.6
2014-Apr-10 22:09N 36°07' W 006°24'711.1
2014-Apr-10 21:29N 36°14' W 006°27'1111.1
2014-Apr-10 20:29N 36°24' W 006°32'1411.4
2014-Apr-10 19:16N 36°37' W 006°38'44 1.0
2014-Apr-08 23:11N 36°25' W 007°31'711.2
2014-Apr-08 22:33N 36°20' W 007°37'1111.1
2014-Apr-08 21:34N 36°11' W 007°46'  

Dump ship's entire track history

sailing weather and tide predictions

MV Nord Discovery — 3EGP — position and weather